PWSweather.com
Personal Weather Stations
Station Observations
NYERIN
South Erin, Erin, NY 14838-9545

South ErinErin, NY 14838-9545

Lat: 42.150605, Lon: -76.654038

Elevation: 1663

Station Type: Davis VP Pro II

http://southerin-ny.org/wx.php

Latest ConditionsUpdated 7:02:01 PM EDT Wednesday, Jul 1, 2015
Currently Today's Max Today's Min Today's Average
Temperature 66.8°F19.3°C 70.8°F21.6°C 59.3°F15.2°C 64.3°F17.9°C
Dew Point 59.4°F15.2°C 66.5°F19.2°C 59.1°F15.1°C 61.7°F16.5°C
Winds 2.7 mph NW4.3 kmh NW 10.2 mph NW16.4 kmh NW - 1.8 mph 2.9 kmh
Wind Gusts 7.0 mph11.3 kmh 21.0 mph33.8 kmh - -
Humidity 77% 100% 69% 92%
Pressure 29.79 in1008.8 mb 29.79 in1008.8 mb 29.71 in1006.1 mb -
Precipitation - 0.09 in2.3 mm - -
Hour Temp Dew Point Humidity Winds Wind Gusts Pressure Precip Precip Rate Daily Precip Total
07:02 PM 66.8°F19.3°C 59.4°F15.2°C 77% 2.7 mph NW4.3 kmh NW 7.0 mph11.3 kmh 29.79 in1008.8 mb - 0.00 in0.0 mm 0.09 in2.3 mm
06:52 PM 66.8°F19.3°C 59.4°F15.2°C 77% 1.8 mph W2.9 kmh W 3.0 mph4.8 kmh 29.78 in1008.5 mb - 0.00 in0.0 mm 0.09 in2.3 mm
06:42 PM 66.9°F19.4°C 59.1°F15.1°C 76% 2.1 mph W3.4 kmh W 9.0 mph14.5 kmh 29.78 in1008.5 mb - 0.00 in0.0 mm 0.09 in2.3 mm
06:32 PM 67.1°F19.5°C 59.6°F15.3°C 77% 2.2 mph WNW3.5 kmh WNW 3.0 mph4.8 kmh 29.78 in1008.5 mb - 0.00 in0.0 mm 0.09 in2.3 mm
06:22 PM 67.4°F19.7°C 59.6°F15.3°C 76% 2.9 mph NW4.7 kmh NW 10.0 mph16.1 kmh 29.78 in1008.5 mb - 0.00 in0.0 mm 0.09 in2.3 mm
06:12 PM 67.3°F19.6°C 59.5°F15.3°C 76% 4.7 mph NW7.6 kmh NW 6.0 mph9.7 kmh 29.78 in1008.5 mb - 0.00 in0.0 mm 0.09 in2.3 mm
06:02 PM 67.5°F19.7°C 59.3°F15.2°C 75% 5.8 mph NW9.3 kmh NW 11.0 mph17.7 kmh 29.78 in1008.5 mb - 0.00 in0.0 mm 0.09 in2.3 mm
05:52 PM 67.9°F19.9°C 59.7°F15.4°C 75% 5.3 mph W8.5 kmh W 9.0 mph14.5 kmh 29.78 in1008.5 mb - 0.00 in0.0 mm 0.09 in2.3 mm
05:42 PM 68.4°F20.2°C 60.2°F15.7°C 75% 5.2 mph NW8.4 kmh NW 8.0 mph12.9 kmh 29.78 in1008.5 mb - 0.00 in0.0 mm 0.09 in2.3 mm
05:32 PM 68.4°F20.2°C 59.8°F15.4°C 74% 3.6 mph WSW5.8 kmh WSW 11.0 mph17.7 kmh 29.78 in1008.5 mb - 0.00 in0.0 mm 0.09 in2.3 mm
05:22 PM 68.3°F20.2°C 60.4°F15.8°C 76% 4.7 mph WNW7.6 kmh WNW 8.0 mph12.9 kmh 29.78 in1008.5 mb - 0.00 in0.0 mm 0.09 in2.3 mm
05:12 PM 67.8°F19.9°C 59.6°F15.3°C 75% 2.7 mph NW4.3 kmh NW 9.0 mph14.5 kmh 29.77 in1008.1 mb - 0.00 in0.0 mm 0.09 in2.3 mm
05:02 PM 68.8°F20.4°C 60.2°F15.7°C 74% 4.2 mph NW6.8 kmh NW 14.0 mph22.5 kmh 29.77 in1008.1 mb - 0.00 in0.0 mm 0.09 in2.3 mm
04:52 PM 70.0°F21.1°C 60.5°F15.8°C 72% 9.0 mph WSW14.5 kmh WSW 10.0 mph16.1 kmh 29.77 in1008.1 mb - 0.00 in0.0 mm 0.09 in2.3 mm
04:42 PM 70.1°F21.2°C 60.6°F15.9°C 72% 6.4 mph WSW10.3 kmh WSW 13.0 mph20.9 kmh 29.77 in1008.1 mb - 0.00 in0.0 mm 0.09 in2.3 mm
04:32 PM 69.9°F21.1°C 60.5°F15.8°C 72% 7.6 mph NW12.2 kmh NW 13.0 mph20.9 kmh 29.77 in1008.1 mb - 0.00 in0.0 mm 0.09 in2.3 mm
04:22 PM 70.3°F21.3°C 60.8°F16.0°C 72% 5.5 mph NW8.9 kmh NW 14.0 mph22.5 kmh 29.76 in1007.8 mb - 0.00 in0.0 mm 0.09 in2.3 mm
04:12 PM 70.6°F21.4°C 60.4°F15.8°C 70% 6.7 mph W10.8 kmh W 14.0 mph22.5 kmh 29.76 in1007.8 mb - 0.00 in0.0 mm 0.09 in2.3 mm
04:02 PM 70.3°F21.3°C 59.6°F15.3°C 69% 5.6 mph NNW9.0 kmh NNW 13.0 mph20.9 kmh 29.76 in1007.8 mb - 0.00 in0.0 mm 0.09 in2.3 mm
03:52 PM 70.0°F21.1°C 60.9°F16.1°C 73% 6.2 mph NW10.0 kmh NW 21.0 mph33.8 kmh 29.75 in1007.5 mb - 0.00 in0.0 mm 0.09 in2.3 mm
03:42 PM 69.6°F20.9°C 61.0°F16.1°C 74% 5.3 mph NW8.5 kmh NW 14.0 mph22.5 kmh 29.75 in1007.5 mb - 0.00 in0.0 mm 0.09 in2.3 mm
03:32 PM 70.1°F21.2°C 61.8°F16.6°C 75% 5.6 mph W9.0 kmh W 16.0 mph25.7 kmh 29.75 in1007.5 mb - 0.00 in0.0 mm 0.09 in2.3 mm
03:22 PM 68.2°F20.1°C 61.1°F16.2°C 78% 3.5 mph WNW5.6 kmh WNW 11.0 mph17.7 kmh 29.74 in1007.1 mb - 0.00 in0.0 mm 0.09 in2.3 mm
03:12 PM 69.5°F20.8°C 61.9°F16.6°C 77% 10.2 mph NW16.4 kmh NW 19.0 mph30.6 kmh 29.74 in1007.1 mb - 0.00 in0.0 mm 0.09 in2.3 mm
03:02 PM 68.5°F20.3°C 63.5°F17.5°C 84% 4.2 mph W6.8 kmh W 6.0 mph9.7 kmh 29.74 in1007.1 mb - 0.00 in0.0 mm 0.09 in2.3 mm
02:52 PM 67.1°F19.5°C 62.8°F17.1°C 86% 4.7 mph W7.6 kmh W 6.0 mph9.7 kmh 29.74 in1007.1 mb - 0.00 in0.0 mm 0.09 in2.3 mm
02:42 PM 66.4°F19.1°C 63.0°F17.2°C 89% 1.3 mph W2.1 kmh W 6.0 mph9.7 kmh 29.73 in1006.8 mb - 0.00 in0.0 mm 0.09 in2.3 mm
02:32 PM 67.1°F19.5°C 63.1°F17.3°C 87% 2.1 mph NW3.4 kmh NW 5.0 mph8.0 kmh 29.73 in1006.8 mb - 0.00 in0.0 mm 0.09 in2.3 mm
02:22 PM 67.8°F19.9°C 65.1°F18.4°C 91% 1.7 mph W2.7 kmh W 1.0 mph1.6 kmh 29.73 in1006.8 mb - 0.00 in0.0 mm 0.09 in2.3 mm
02:12 PM 67.1°F19.5°C 65.3°F18.5°C 94% 4.3 mph W6.9 kmh W 7.0 mph11.3 kmh 29.73 in1006.8 mb - 0.00 in0.0 mm 0.09 in2.3 mm
02:02 PM 67.1°F19.5°C 66.2°F19.0°C 97% 5.9 mph W9.5 kmh W 8.0 mph12.9 kmh 29.73 in1006.8 mb - 0.00 in0.0 mm 0.09 in2.3 mm
01:52 PM 66.9°F19.4°C 65.7°F18.7°C 96% 2.8 mph WSW4.5 kmh WSW 7.0 mph11.3 kmh 29.73 in1006.8 mb - 0.00 in0.0 mm 0.09 in2.3 mm
01:42 PM 66.8°F19.3°C 65.9°F18.8°C 97% 2.0 mph SSW3.2 kmh SSW 7.0 mph11.3 kmh 29.73 in1006.8 mb - 0.00 in0.0 mm 0.09 in2.3 mm
01:32 PM 67.1°F19.5°C 66.5°F19.2°C 98% 0.8 mph W1.3 kmh W 1.0 mph1.6 kmh 29.73 in1006.8 mb - 0.00 in0.0 mm 0.09 in2.3 mm
01:22 PM 66.2°F19.0°C 66.2°F19.0°C 100% 0.1 mph SW0.2 kmh SW 1.0 mph1.6 kmh 29.73 in1006.8 mb - 0.00 in0.0 mm 0.09 in2.3 mm
01:12 PM 65.1°F18.4°C 63.6°F17.6°C 95% 2.6 mph WSW4.2 kmh WSW 3.0 mph4.8 kmh 29.73 in1006.8 mb - 0.08 in2.0 mm 0.09 in2.3 mm
01:02 PM 68.3°F20.2°C 63.3°F17.4°C 84% 3.9 mph WSW6.3 kmh WSW 7.0 mph11.3 kmh 29.72 in1006.4 mb - 0.00 in0.0 mm 0.01 in0.3 mm
12:52 PM 70.8°F21.6°C 64.3°F17.9°C 80% 1.7 mph W2.7 kmh W 8.0 mph12.9 kmh 29.71 in1006.1 mb - 0.00 in0.0 mm 0.01 in0.3 mm
12:42 PM 69.1°F20.6°C 64.1°F17.8°C 84% 2.0 mph SSW3.2 kmh SSW 8.0 mph12.9 kmh 29.72 in1006.4 mb - 0.00 in0.0 mm 0.01 in0.3 mm
12:32 PM 69.6°F20.9°C 64.2°F17.9°C 83% 3.0 mph SW4.8 kmh SW 10.0 mph16.1 kmh 29.72 in1006.4 mb - 0.00 in0.0 mm 0.01 in0.3 mm
12:22 PM 68.6°F20.3°C 63.6°F17.6°C 84% 3.8 mph WSW6.1 kmh WSW 7.0 mph11.3 kmh 29.72 in1006.4 mb - 0.00 in0.0 mm 0.01 in0.3 mm
12:12 PM 67.9°F19.9°C 62.9°F17.2°C 84% 5.8 mph WNW9.3 kmh WNW 9.0 mph14.5 kmh 29.72 in1006.4 mb - 0.00 in0.0 mm 0.01 in0.3 mm
12:02 PM 68.1°F20.1°C 63.1°F17.3°C 84% 2.7 mph WSW4.3 kmh WSW 7.0 mph11.3 kmh 29.72 in1006.4 mb - 0.00 in0.0 mm 0.01 in0.3 mm
11:52 AM 69.8°F21.0°C 63.3°F17.4°C 80% 4.4 mph W7.1 kmh W 9.0 mph14.5 kmh 29.72 in1006.4 mb - 0.00 in0.0 mm 0.01 in0.3 mm
11:42 AM 67.9°F19.9°C 64.5°F18.1°C 89% 0.8 mph WSW1.3 kmh WSW 6.0 mph9.7 kmh 29.72 in1006.4 mb - 0.00 in0.0 mm 0.01 in0.3 mm
11:32 AM 70.0°F21.1°C 65.0°F18.3°C 84% 2.2 mph S3.5 kmh S 10.0 mph16.1 kmh 29.71 in1006.1 mb - 0.00 in0.0 mm 0.01 in0.3 mm
11:22 AM 69.4°F20.8°C 65.7°F18.7°C 88% 0.7 mph W1.1 kmh W 3.0 mph4.8 kmh 29.72 in1006.4 mb - 0.00 in0.0 mm 0.01 in0.3 mm
11:12 AM 68.4°F20.2°C 65.3°F18.5°C 90% 3.4 mph WSW5.5 kmh WSW 5.0 mph8.0 kmh 29.72 in1006.4 mb - 0.00 in0.0 mm 0.01 in0.3 mm
11:02 AM 67.5°F19.7°C 65.4°F18.6°C 93% 0.5 mph SW0.8 kmh SW 4.0 mph6.4 kmh 29.72 in1006.4 mb - 0.00 in0.0 mm 0.01 in0.3 mm
10:52 AM 67.4°F19.7°C 64.0°F17.8°C 89% 0.6 mph SW1.0 kmh SW 2.0 mph3.2 kmh 29.72 in1006.4 mb - 0.00 in0.0 mm 0.01 in0.3 mm
10:42 AM 67.9°F19.9°C 63.9°F17.7°C 87% 3.1 mph WSW5.0 kmh WSW 6.0 mph9.7 kmh 29.71 in1006.1 mb - 0.00 in0.0 mm 0.01 in0.3 mm
10:32 AM 67.6°F19.8°C 65.5°F18.6°C 93% 2.0 mph W3.2 kmh W 5.0 mph8.0 kmh 29.71 in1006.1 mb - 0.00 in0.0 mm 0.01 in0.3 mm
10:22 AM 66.5°F19.2°C 64.7°F18.2°C 94% 1.5 mph SSW2.4 kmh SSW 5.0 mph8.0 kmh 29.71 in1006.1 mb - 0.00 in0.0 mm 0.01 in0.3 mm
10:12 AM 65.9°F18.8°C 65.0°F18.3°C 97% 2.7 mph S4.3 kmh S 6.0 mph9.7 kmh 29.71 in1006.1 mb - 0.00 in0.0 mm 0.01 in0.3 mm
10:02 AM 65.5°F18.6°C 64.6°F18.1°C 97% 0.6 mph W1.0 kmh W 1.0 mph1.6 kmh 29.71 in1006.1 mb - 0.00 in0.0 mm 0.01 in0.3 mm
09:52 AM 65.0°F18.3°C 65.0°F18.3°C 100% 0.9 mph SW1.4 kmh SW 5.0 mph8.0 kmh 29.72 in1006.4 mb - 0.00 in0.0 mm 0.01 in0.3 mm
09:42 AM 64.4°F18.0°C 64.5°F18.1°C 100% 0.1 mph SSW0.2 kmh SSW 1.0 mph1.6 kmh 29.72 in1006.4 mb - 0.00 in0.0 mm 0.01 in0.3 mm
09:32 AM 63.4°F17.4°C 63.4°F17.4°C 100% 0.8 mph SW1.3 kmh SW 5.0 mph8.0 kmh 29.73 in1006.8 mb - 0.00 in0.0 mm 0.01 in0.3 mm
09:22 AM 63.1°F17.3°C 63.1°F17.3°C 100% Calm Calm -- 29.73 in1006.8 mb - 0.00 in0.0 mm 0.01 in0.3 mm
09:12 AM 63.5°F17.5°C 63.5°F17.5°C 100% 0.7 mph SW1.1 kmh SW 2.0 mph3.2 kmh 29.73 in1006.8 mb - 0.00 in0.0 mm 0.01 in0.3 mm
09:02 AM 62.7°F17.1°C 62.7°F17.1°C 100% 0.5 mph SW0.8 kmh SW -- 29.73 in1006.8 mb - 0.00 in0.0 mm 0.01 in0.3 mm
08:52 AM 62.6°F17.0°C 62.6°F17.0°C 100% 1.5 mph SW2.4 kmh SW 3.0 mph4.8 kmh 29.73 in1006.8 mb - 0.00 in0.0 mm 0.01 in0.3 mm
08:42 AM 62.3°F16.8°C 62.3°F16.8°C 100% 0.1 mph SW0.2 kmh SW 2.0 mph3.2 kmh 29.73 in1006.8 mb - 0.00 in0.0 mm 0.01 in0.3 mm
08:32 AM 62.1°F16.7°C 62.1°F16.7°C 100% Calm Calm -- 29.73 in1006.8 mb - 0.00 in0.0 mm 0.01 in0.3 mm
08:22 AM 61.6°F16.4°C 61.6°F16.4°C 100% Calm Calm -- 29.73 in1006.8 mb - 0.00 in0.0 mm 0.01 in0.3 mm
08:12 AM 61.5°F16.4°C 61.5°F16.4°C 100% Calm Calm 2.0 mph3.2 kmh 29.73 in1006.8 mb - 0.00 in0.0 mm 0.01 in0.3 mm
08:02 AM 61.5°F16.4°C 61.5°F16.4°C 100% Calm Calm 1.0 mph1.6 kmh 29.73 in1006.8 mb - 0.00 in0.0 mm 0.01 in0.3 mm
07:52 AM 61.2°F16.2°C 61.2°F16.2°C 100% Calm Calm -- 29.72 in1006.4 mb - 0.00 in0.0 mm 0.01 in0.3 mm
07:42 AM 61.0°F16.1°C 61.0°F16.1°C 100% 0.2 mph WSW0.3 kmh WSW -- 29.73 in1006.8 mb - 0.00 in0.0 mm 0.01 in0.3 mm
07:32 AM 60.7°F15.9°C 60.7°F15.9°C 100% Calm Calm -- 29.72 in1006.4 mb - 0.00 in0.0 mm 0.01 in0.3 mm
07:22 AM 60.4°F15.8°C 60.4°F15.8°C 100% Calm Calm -- 29.72 in1006.4 mb - 0.00 in0.0 mm 0.01 in0.3 mm
07:12 AM 60.2°F15.7°C 60.2°F15.7°C 100% Calm Calm -- 29.72 in1006.4 mb - 0.01 in0.3 mm 0.01 in0.3 mm
07:02 AM 60.1°F15.6°C 60.1°F15.6°C 100% 0.3 mph WSW0.5 kmh WSW 3.0 mph4.8 kmh 29.71 in1006.1 mb - 0.00 in0.0 mm 0.00 in0.0 mm
06:52 AM 60.1°F15.6°C 60.1°F15.6°C 100% Calm Calm -- 29.71 in1006.1 mb - 0.00 in0.0 mm 0.00 in0.0 mm
06:42 AM 60.1°F15.6°C 60.1°F15.6°C 100% Calm Calm -- 29.71 in1006.1 mb - 0.00 in0.0 mm 0.00 in0.0 mm
06:32 AM 60.1°F15.6°C 60.1°F15.6°C 100% Calm Calm 1.0 mph1.6 kmh 29.71 in1006.1 mb - 0.00 in0.0 mm 0.00 in0.0 mm
06:22 AM 60.2°F15.7°C 60.2°F15.7°C 100% Calm Calm -- 29.71 in1006.1 mb - 0.00 in0.0 mm 0.00 in0.0 mm
06:12 AM 60.2°F15.7°C 60.2°F15.7°C 100% Calm Calm -- 29.71 in1006.1 mb - 0.00 in0.0 mm 0.00 in0.0 mm
06:02 AM 60.2°F15.7°C 60.2°F15.7°C 100% Calm Calm -- 29.71 in1006.1 mb - 0.00 in0.0 mm 0.00 in0.0 mm
05:52 AM 60.2°F15.7°C 60.2°F15.7°C 100% 0.1 mph S0.2 kmh S 3.0 mph4.8 kmh 29.71 in1006.1 mb - 0.00 in0.0 mm 0.00 in0.0 mm
05:42 AM 60.1°F15.6°C 60.1°F15.6°C 100% Calm Calm -- 29.71 in1006.1 mb - 0.00 in0.0 mm 0.00 in0.0 mm
05:32 AM 60.1°F15.6°C 60.1°F15.6°C 100% Calm Calm -- 29.72 in1006.4 mb - 0.00 in0.0 mm 0.00 in0.0 mm
05:22 AM 60.1°F15.6°C 60.1°F15.6°C 100% 0.2 mph S0.3 kmh S -- 29.71 in1006.1 mb - 0.00 in0.0 mm 0.00 in0.0 mm
05:12 AM 60.1°F15.6°C 60.1°F15.6°C 100% Calm Calm -- 29.71 in1006.1 mb - 0.00 in0.0 mm 0.00 in0.0 mm
05:02 AM 60.1°F15.6°C 60.1°F15.6°C 100% 0.9 mph SSW1.4 kmh SSW 2.0 mph3.2 kmh 29.72 in1006.4 mb - 0.00 in0.0 mm 0.00 in0.0 mm
04:52 AM 59.9°F15.5°C 59.9°F15.5°C 100% 1.5 mph S2.4 kmh S 3.0 mph4.8 kmh 29.72 in1006.4 mb - 0.00 in0.0 mm 0.00 in0.0 mm
04:42 AM 59.8°F15.4°C 59.8°F15.4°C 100% 0.5 mph S0.8 kmh S 4.0 mph6.4 kmh 29.72 in1006.4 mb - 0.00 in0.0 mm 0.00 in0.0 mm
04:32 AM 59.8°F15.4°C 59.8°F15.4°C 100% Calm Calm -- 29.72 in1006.4 mb - 0.00 in0.0 mm 0.00 in0.0 mm
04:22 AM 59.8°F15.4°C 59.8°F15.4°C 100% 0.4 mph S0.6 kmh S 2.0 mph3.2 kmh 29.73 in1006.8 mb - 0.00 in0.0 mm 0.00 in0.0 mm
04:12 AM 59.8°F15.4°C 59.8°F15.4°C 100% Calm Calm -- 29.72 in1006.4 mb - 0.00 in0.0 mm 0.00 in0.0 mm
04:02 AM 59.6°F15.3°C 59.6°F15.3°C 100% Calm Calm -- 29.72 in1006.4 mb - 0.00 in0.0 mm 0.00 in0.0 mm
03:52 AM 59.3°F15.2°C 59.3°F15.2°C 100% Calm Calm -- 29.73 in1006.8 mb - 0.00 in0.0 mm 0.00 in0.0 mm
03:42 AM 59.3°F15.2°C 59.3°F15.2°C 100% 0.2 mph S0.3 kmh S 3.0 mph4.8 kmh 29.72 in1006.4 mb - 0.00 in0.0 mm 0.00 in0.0 mm
03:32 AM 59.5°F15.3°C 59.5°F15.3°C 100% Calm Calm -- 29.72 in1006.4 mb - 0.00 in0.0 mm 0.00 in0.0 mm
03:22 AM 59.6°F15.3°C 59.6°F15.3°C 100% Calm Calm -- 29.72 in1006.4 mb - 0.00 in0.0 mm 0.00 in0.0 mm
03:12 AM 59.8°F15.4°C 59.8°F15.4°C 100% Calm Calm -- 29.72 in1006.4 mb - 0.00 in0.0 mm 0.00 in0.0 mm
03:02 AM 59.9°F15.5°C 59.9°F15.5°C 100% Calm Calm -- 29.71 in1006.1 mb - 0.00 in0.0 mm 0.00 in0.0 mm
02:52 AM 59.9°F15.5°C 59.9°F15.5°C 100% Calm Calm 1.0 mph1.6 kmh 29.72 in1006.4 mb - 0.00 in0.0 mm 0.00 in0.0 mm
02:42 AM 59.9°F15.5°C 59.9°F15.5°C 100% Calm Calm -- 29.72 in1006.4 mb - 0.00 in0.0 mm 0.00 in0.0 mm
02:32 AM 60.1°F15.6°C 60.1°F15.6°C 100% Calm Calm 1.0 mph1.6 kmh 29.71 in1006.1 mb - 0.00 in0.0 mm 0.00 in0.0 mm
02:22 AM 60.4°F15.8°C 60.4°F15.8°C 100% Calm Calm -- 29.71 in1006.1 mb - 0.00 in0.0 mm 0.00 in0.0 mm
02:12 AM 60.5°F15.8°C 60.5°F15.8°C 100% Calm Calm -- 29.72 in1006.4 mb - 0.00 in0.0 mm 0.00 in0.0 mm
02:02 AM 60.8°F16.0°C 60.8°F16.0°C 100% Calm Calm -- 29.73 in1006.8 mb - 0.00 in0.0 mm 0.00 in0.0 mm
01:52 AM 61.0°F16.1°C 61.0°F16.1°C 100% Calm Calm -- 29.73 in1006.8 mb - 0.00 in0.0 mm 0.00 in0.0 mm
01:42 AM 61.0°F16.1°C 61.0°F16.1°C 100% Calm Calm -- 29.73 in1006.8 mb - 0.00 in0.0 mm 0.00 in0.0 mm
01:32 AM 61.2°F16.2°C 61.2°F16.2°C 100% 0.2 mph S0.3 kmh S -- 29.73 in1006.8 mb - 0.00 in0.0 mm 0.00 in0.0 mm
01:22 AM 61.2°F16.2°C 61.2°F16.2°C 100% Calm Calm -- 29.74 in1007.1 mb - 0.00 in0.0 mm 0.00 in0.0 mm
01:12 AM 61.2°F16.2°C 61.2°F16.2°C 100% Calm Calm -- 29.74 in1007.1 mb - 0.00 in0.0 mm 0.00 in0.0 mm
01:02 AM 61.2°F16.2°C 61.2°F16.2°C 100% 1.0 mph S1.6 kmh S 4.0 mph6.4 kmh 29.74 in1007.1 mb - 0.00 in0.0 mm 0.00 in0.0 mm
12:52 AM 61.2°F16.2°C 61.2°F16.2°C 100% 0.1 mph S0.2 kmh S 2.0 mph3.2 kmh 29.75 in1007.5 mb - 0.00 in0.0 mm 0.00 in0.0 mm
12:42 AM 61.0°F16.1°C 61.0°F16.1°C 100% 0.1 mph S0.2 kmh S 1.0 mph1.6 kmh 29.75 in1007.5 mb - 0.00 in0.0 mm 0.00 in0.0 mm
12:32 AM 60.9°F16.1°C 60.9°F16.1°C 100% 1.4 mph SSE2.3 kmh SSE 1.0 mph1.6 kmh 29.75 in1007.5 mb - 0.00 in0.0 mm 0.00 in0.0 mm
12:22 AM 60.7°F15.9°C 60.7°F15.9°C 100% 0.4 mph S0.6 kmh S 3.0 mph4.8 kmh 29.75 in1007.5 mb - 0.00 in0.0 mm 0.00 in0.0 mm
12:12 AM 60.7°F15.9°C 60.7°F15.9°C 100% 0.8 mph S1.3 kmh S 4.0 mph6.4 kmh 29.75 in1007.5 mb - 0.00 in0.0 mm 0.00 in0.0 mm
12:02 AM 61.0°F16.1°C 61.0°F16.1°C 100% 0.2 mph S0.3 kmh S 1.0 mph1.6 kmh 29.75 in1007.5 mb - 0.00 in0.0 mm 0.00 in0.0 mm